createdAt,value
2023-03-12T00:01:57.084Z,90.59
2023-03-12T00:04:23.582Z,90.18
2023-03-12T00:06:49.999Z,89.61
2023-03-12T00:09:16.638Z,89.06
2023-03-12T00:11:43.461Z,88.20
2023-03-12T00:14:09.914Z,87.34
2023-03-12T00:16:36.351Z,86.89
2023-03-12T00:19:03.067Z,86.17
2023-03-12T00:21:29.446Z,84.46
2023-03-12T00:23:56.270Z,84.62
2023-03-12T00:26:22.728Z,84.67
2023-03-12T00:28:50.447Z,83.78
2023-03-12T00:31:20.328Z,84.37
2023-03-12T00:33:49.882Z,85.06
2023-03-12T00:36:17.964Z,84.97
2023-03-12T00:38:44.469Z,84.19
2023-03-12T00:41:10.973Z,84.25
2023-03-12T00:43:37.496Z,84.79
2023-03-12T00:46:04.304Z,85.11
2023-03-12T00:48:31.055Z,85.20
2023-03-12T00:50:57.542Z,85.06
2023-03-12T00:53:24.055Z,84.18
2023-03-12T00:55:50.507Z,84.62
2023-03-12T00:58:17.134Z,84.85
2023-03-12T01:00:43.566Z,84.30
2023-03-12T01:03:09.962Z,84.67
2023-03-12T01:05:37.816Z,84.86
2023-03-12T01:08:08.004Z,85.09
2023-03-12T01:10:35.113Z,84.01
2023-03-12T01:13:01.681Z,84.99
2023-03-12T01:15:29.255Z,85.03
2023-03-12T01:17:55.626Z,84.59
2023-03-12T01:20:23.022Z,84.37
2023-03-12T01:22:49.530Z,84.22
2023-03-12T01:25:16.094Z,83.76
2023-03-12T01:27:42.480Z,84.82
2023-03-12T01:30:10.050Z,83.62
2023-03-12T01:32:36.607Z,83.16
2023-03-12T01:35:03.240Z,80.76
2023-03-12T01:37:29.615Z,81.36
2023-03-12T01:39:56.231Z,81.47
2023-03-12T01:42:22.646Z,81.84
2023-03-12T01:44:56.327Z,80.67
2023-03-12T01:47:24.402Z,78.97
2023-03-12T01:49:54.412Z,79.75
2023-03-12T01:52:33.052Z,78.58
2023-03-12T01:55:09.530Z,80.14
2023-03-12T01:57:59.157Z,77.53
2023-03-12T02:00:27.339Z,78.13
2023-03-12T02:03:00.421Z,76.78
2023-03-12T02:05:43.315Z,77.51
2023-03-12T02:08:14.462Z,76.20
2023-03-12T02:10:40.962Z,75.97
2023-03-12T02:13:07.783Z,74.53
2023-03-12T02:15:36.163Z,73.48
2023-03-12T02:18:13.645Z,72.96
2023-03-12T02:20:49.490Z,72.87
2023-03-12T02:23:30.165Z,72.52
2023-03-12T02:25:58.495Z,72.72
2023-03-12T02:28:27.992Z,72.06
2023-03-12T02:30:59.857Z,72.06
2023-03-12T02:33:26.483Z,72.62
2023-03-12T02:35:54.161Z,71.80
2023-03-12T02:38:34.065Z,72.54
2023-03-12T02:41:05.453Z,72.39
2023-03-12T02:43:32.352Z,72.81
2023-03-12T02:45:58.834Z,72.83
2023-03-12T02:48:25.290Z,73.24
2023-03-12T02:50:52.389Z,73.89
2023-03-12T02:53:18.783Z,73.55
2023-03-12T02:55:45.286Z,73.41
2023-03-12T02:58:11.708Z,74.10
2023-03-12T03:00:38.134Z,74.43
2023-03-12T03:03:04.666Z,73.49
2023-03-12T03:05:31.558Z,73.36
2023-03-12T03:07:57.951Z,73.24
2023-03-12T03:10:24.552Z,73.60
2023-03-12T03:12:51.426Z,73.62
2023-03-12T03:15:17.957Z,73.63
2023-03-12T03:17:44.507Z,74.11
2023-03-12T03:20:11.932Z,74.14
2023-03-12T03:22:39.327Z,74.98
2023-03-12T03:25:07.432Z,74.99
2023-03-12T03:27:34.169Z,75.71
2023-03-12T03:30:00.805Z,77.88
2023-03-12T03:32:27.769Z,76.72
2023-03-12T03:34:54.277Z,75.54
2023-03-12T03:37:20.680Z,76.57
2023-03-12T03:39:47.203Z,75.80
2023-03-12T03:42:13.740Z,74.93
2023-03-12T03:44:40.993Z,75.56
2023-03-12T03:47:07.494Z,74.90
2023-03-12T03:49:33.969Z,74.51
2023-03-12T03:52:00.577Z,75.11
2023-03-12T03:54:33.985Z,74.69
2023-03-12T03:57:01.037Z,74.62
2023-03-12T03:59:28.345Z,73.88
2023-03-12T04:01:55.798Z,73.20
2023-03-12T04:04:22.483Z,73.46
2023-03-12T04:06:49.419Z,72.82
2023-03-12T04:09:16.202Z,72.97
2023-03-12T04:11:42.715Z,73.11
2023-03-12T04:14:11.961Z,73.26
2023-03-12T04:16:45.881Z,73.33
2023-03-12T04:19:12.343Z,73.01
2023-03-12T04:21:39.635Z,73.23
2023-03-12T04:24:08.195Z,73.96
2023-03-12T04:26:35.150Z,73.53
2023-03-12T04:29:03.073Z,73.13
2023-03-12T04:31:29.824Z,72.81
2023-03-12T04:33:56.282Z,73.00
2023-03-12T04:36:24.658Z,73.20
2023-03-12T04:38:52.533Z,73.57
2023-03-12T04:41:23.569Z,73.28
2023-03-12T04:43:55.110Z,73.29
2023-03-12T04:46:22.019Z,72.84
2023-03-12T04:48:48.610Z,73.76
2023-03-12T04:51:15.619Z,73.13
2023-03-12T04:53:42.394Z,73.61
2023-03-12T04:56:11.029Z,73.59
2023-03-12T04:58:38.687Z,73.57
2023-03-12T05:01:05.810Z,73.39
2023-03-12T05:03:32.662Z,73.14
2023-03-12T05:05:59.487Z,73.50
2023-03-12T05:08:26.139Z,73.96
2023-03-12T05:10:52.603Z,74.04
2023-03-12T05:13:21.655Z,73.79
2023-03-12T05:15:51.552Z,74.04
2023-03-12T05:18:21.236Z,74.85
2023-03-12T05:20:47.861Z,75.04
2023-03-12T05:23:14.422Z,75.74
2023-03-12T05:25:41.385Z,76.42
2023-03-12T05:28:08.319Z,76.61
2023-03-12T05:30:36.337Z,77.29
2023-03-12T05:33:02.864Z,77.90
2023-03-12T05:35:30.285Z,78.33
2023-03-12T05:37:56.928Z,78.89
2023-03-12T05:40:23.281Z,79.14
2023-03-12T05:42:49.843Z,79.43
2023-03-12T05:45:19.544Z,80.16
2023-03-12T05:47:50.229Z,80.98
2023-03-12T05:50:17.512Z,80.48
2023-03-12T05:52:44.060Z,81.63
2023-03-12T05:55:11.376Z,81.99
2023-03-12T05:57:37.867Z,82.28
2023-03-12T06:00:06.098Z,82.68
2023-03-12T06:02:39.999Z,82.78
2023-03-12T06:05:07.390Z,83.38
2023-03-12T06:07:34.178Z,84.13
2023-03-12T06:10:00.769Z,84.39
2023-03-12T06:12:27.430Z,85.05
2023-03-12T06:14:53.906Z,85.09
2023-03-12T06:17:21.419Z,85.42
2023-03-12T06:19:51.739Z,85.69
2023-03-12T06:22:19.539Z,85.61
2023-03-12T06:24:47.270Z,85.56
2023-03-12T06:27:15.746Z,85.51
2023-03-12T06:29:43.027Z,85.57
2023-03-12T06:32:09.466Z,86.07
2023-03-12T06:34:35.854Z,86.41
2023-03-12T06:37:02.410Z,86.63
2023-03-12T06:39:29.851Z,86.52
2023-03-12T06:41:56.498Z,87.25
2023-03-12T06:44:22.985Z,87.76
2023-03-12T06:46:49.405Z,87.97
2023-03-12T06:49:15.839Z,88.65
2023-03-12T06:51:42.280Z,89.20
2023-03-12T06:54:08.889Z,90.14
2023-03-12T06:56:35.342Z,90.51
2023-03-12T06:59:01.742Z,91.43
2023-03-12T07:01:28.211Z,92.85
2023-03-12T07:03:54.666Z,94.25
2023-03-12T07:06:22.439Z,95.94
2023-03-12T07:08:48.882Z,97.50
2023-03-12T07:11:15.878Z,98.03
2023-03-12T07:13:42.328Z,98.42
2023-03-12T07:16:09.179Z,98.36
2023-03-12T07:18:35.591Z,98.80
2023-03-12T07:21:02.107Z,98.81
2023-03-12T07:23:28.500Z,99.10
2023-03-12T07:25:55.073Z,99.02
2023-03-12T07:28:22.274Z,99.27
2023-03-12T07:30:50.569Z,99.53
2023-03-12T07:33:20.163Z,99.62
2023-03-12T07:35:50.982Z,99.32
2023-03-12T07:38:18.247Z,99.10
2023-03-12T07:40:44.916Z,99.17
2023-03-12T07:43:12.684Z,99.04
2023-03-12T07:45:40.720Z,99.18
2023-03-12T07:48:07.631Z,99.82
2023-03-12T07:50:35.043Z,100.00
2023-03-12T07:53:01.798Z,100.00
2023-03-12T07:55:28.636Z,100.00
2023-03-12T07:57:58.284Z,100.00
2023-03-12T08:00:25.789Z,100.00
2023-03-12T08:02:52.781Z,100.00
2023-03-12T08:05:19.833Z,100.00
2023-03-12T08:07:46.644Z,100.00
2023-03-12T08:10:13.276Z,100.00
2023-03-12T08:12:39.863Z,100.00
2023-03-12T08:15:08.787Z,100.00
2023-03-12T08:17:35.286Z,100.00
2023-03-12T08:20:01.764Z,100.00
2023-03-12T08:22:28.131Z,100.00
2023-03-12T08:24:54.487Z,100.00
2023-03-12T08:27:21.105Z,100.00
2023-03-12T08:29:47.529Z,100.00
2023-03-12T08:32:14.164Z,100.00
2023-03-12T08:34:40.801Z,100.00
2023-03-12T08:37:07.508Z,100.00
2023-03-12T08:39:34.144Z,100.00
2023-03-12T08:42:00.922Z,100.00
2023-03-12T08:44:27.486Z,100.00
2023-03-12T08:46:54.442Z,100.00
2023-03-12T08:49:21.475Z,100.00
2023-03-12T08:51:48.427Z,100.00
2023-03-12T08:54:15.136Z,100.00
2023-03-12T08:56:44.444Z,100.00
2023-03-12T08:59:12.406Z,100.00
2023-03-12T09:01:43.004Z,100.00
2023-03-12T09:04:10.532Z,100.00
2023-03-12T09:06:38.309Z,100.00
2023-03-12T09:09:05.557Z,100.00
2023-03-12T09:11:33.251Z,100.00
2023-03-12T09:16:47.509Z,100.00
2023-03-12T09:19:14.492Z,100.00
2023-03-12T09:21:41.100Z,100.00
2023-03-12T09:24:08.167Z,100.00
2023-03-12T09:26:34.606Z,100.00
2023-03-12T09:29:00.964Z,100.00
2023-03-12T09:31:27.824Z,100.00
2023-03-12T09:33:54.286Z,100.00
2023-03-12T09:36:20.698Z,100.00
2023-03-12T09:38:47.102Z,100.00
2023-03-12T09:41:28.851Z,100.00
2023-03-12T09:44:10.823Z,100.00
2023-03-12T09:46:43.161Z,100.00
2023-03-12T09:49:32.276Z,100.00
2023-03-12T09:52:01.985Z,100.00
2023-03-12T09:54:38.095Z,100.00
2023-03-12T09:57:13.362Z,100.00
2023-03-12T09:59:39.817Z,100.00
2023-03-12T10:02:27.529Z,100.00
2023-03-12T10:05:00.939Z,100.00
2023-03-12T10:07:32.275Z,100.00
2023-03-12T10:10:36.222Z,100.00
2023-03-12T10:13:10.107Z,100.00
2023-03-12T10:15:57.369Z,100.00
2023-03-12T10:18:43.004Z,100.00
2023-03-12T10:21:35.342Z,100.00
2023-03-12T10:24:16.516Z,100.00
2023-03-12T10:26:49.039Z,100.00
2023-03-12T10:29:24.537Z,100.00
2023-03-12T10:31:56.979Z,100.00
2023-03-12T10:34:40.191Z,100.00
2023-03-12T10:37:14.300Z,100.00
2023-03-12T10:39:40.893Z,100.00
2023-03-12T10:42:28.927Z,100.00
2023-03-12T10:45:19.356Z,100.00
2023-03-12T10:47:52.009Z,100.00
2023-03-12T10:50:30.860Z,100.00
2023-03-12T10:53:34.550Z,100.00
2023-03-12T10:56:05.436Z,100.00
2023-03-12T10:58:35.084Z,100.00
2023-03-12T11:01:03.914Z,100.00
2023-03-12T11:03:30.358Z,100.00
2023-03-12T11:06:00.895Z,100.00
2023-03-12T11:08:29.439Z,100.00
2023-03-12T11:10:58.178Z,100.00
2023-03-12T11:13:26.800Z,100.00
2023-03-12T11:15:54.875Z,100.00
2023-03-12T11:18:25.877Z,100.00
2023-03-12T11:21:11.376Z,100.00
2023-03-12T11:23:43.050Z,100.00
2023-03-12T11:26:22.076Z,100.00
2023-03-12T11:28:56.159Z,100.00
2023-03-12T11:31:30.995Z,100.00
2023-03-12T11:34:03.532Z,100.00
2023-03-12T11:36:56.351Z,100.00
2023-03-12T11:39:49.043Z,100.00
2023-03-12T11:42:24.076Z,100.00
2023-03-12T11:45:03.800Z,100.00
2023-03-12T11:47:48.251Z,100.00
2023-03-12T11:50:39.912Z,100.00
2023-03-12T11:53:21.437Z,100.00
2023-03-12T11:56:25.455Z,100.00
2023-03-12T11:59:05.372Z,100.00
2023-03-12T12:02:04.482Z,100.00
2023-03-12T12:04:45.954Z,100.00
2023-03-12T12:07:33.611Z,100.00
2023-03-12T12:10:23.326Z,100.00
2023-03-12T12:13:04.413Z,100.00
2023-03-12T12:15:45.841Z,100.00
2023-03-12T12:18:36.021Z,100.00
2023-03-12T12:21:24.487Z,100.00
2023-03-12T12:23:59.031Z,100.00
2023-03-12T12:26:42.455Z,100.00
2023-03-12T12:29:27.689Z,100.00
2023-03-12T12:31:59.021Z,100.00
2023-03-12T12:34:58.433Z,100.00
2023-03-12T12:37:38.900Z,100.00
2023-03-12T12:40:21.732Z,100.00
2023-03-12T12:42:55.462Z,100.00
2023-03-12T12:45:24.957Z,100.00
2023-03-12T12:48:03.991Z,100.00
2023-03-12T12:50:37.086Z,100.00
2023-03-12T12:53:22.973Z,100.00
2023-03-12T12:56:19.749Z,100.00
2023-03-12T12:59:24.994Z,100.00
2023-03-12T13:01:54.839Z,100.00
2023-03-12T13:04:48.097Z,100.00
2023-03-12T13:07:20.789Z,100.00
2023-03-12T13:09:58.589Z,100.00
2023-03-12T13:12:24.903Z,100.00
2023-03-12T13:14:54.641Z,100.00
2023-03-12T13:17:33.741Z,100.00
2023-03-12T13:20:11.934Z,100.00
2023-03-12T13:23:17.352Z,100.00
2023-03-12T13:26:06.284Z,100.00
2023-03-12T13:28:36.883Z,100.00
2023-03-12T13:31:28.178Z,100.00
2023-03-12T13:33:59.475Z,100.00
2023-03-12T13:36:29.056Z,100.00
2023-03-12T13:38:57.793Z,100.00
2023-03-12T13:41:54.820Z,100.00
2023-03-12T13:44:27.321Z,100.00
2023-03-12T13:47:03.049Z,100.00
2023-03-12T13:49:45.197Z,100.00
2023-03-12T13:52:26.188Z,100.00
2023-03-12T13:55:13.659Z,100.00
2023-03-12T13:57:49.772Z,100.00
2023-03-12T14:00:18.367Z,100.00
2023-03-12T14:03:00.866Z,100.00
2023-03-12T14:05:28.938Z,100.00
2023-03-12T14:08:15.110Z,100.00
2023-03-12T14:11:11.407Z,100.00
2023-03-12T14:13:43.582Z,100.00
2023-03-12T14:16:17.184Z,100.00
2023-03-12T14:18:44.986Z,100.00
2023-03-12T14:21:16.374Z,100.00
2023-03-12T14:23:58.015Z,100.00
2023-03-12T14:26:29.278Z,100.00
2023-03-12T14:29:02.503Z,100.00
2023-03-12T14:31:31.394Z,100.00
2023-03-12T14:34:08.755Z,100.00
2023-03-12T14:36:45.312Z,100.00
2023-03-12T14:39:39.270Z,100.00
2023-03-12T14:42:07.882Z,100.00
2023-03-12T14:44:36.968Z,100.00
2023-03-12T14:47:11.086Z,100.00
2023-03-12T14:49:43.565Z,98.73
2023-03-12T14:52:20.279Z,99.30
2023-03-12T14:55:07.530Z,97.17
2023-03-12T14:57:35.003Z,96.65
2023-03-12T15:00:01.918Z,97.09
2023-03-12T15:02:31.073Z,95.51
2023-03-12T15:05:00.001Z,95.65
2023-03-12T15:07:34.398Z,94.83
2023-03-12T15:10:06.112Z,95.14
2023-03-12T15:12:38.024Z,94.06
2023-03-12T15:15:10.912Z,93.91
2023-03-12T15:17:37.601Z,93.51
2023-03-12T15:20:09.816Z,93.85
2023-03-12T15:22:37.167Z,93.14
2023-03-12T15:25:25.829Z,92.59
2023-03-12T15:28:25.141Z,91.52
2023-03-12T15:31:16.533Z,88.02
2023-03-12T15:33:44.438Z,86.67
2023-03-12T15:36:14.302Z,86.96
2023-03-12T15:39:05.939Z,85.81
2023-03-12T15:41:32.306Z,86.44
2023-03-12T15:43:59.583Z,85.79
2023-03-12T15:46:27.250Z,85.92
2023-03-12T15:48:59.331Z,86.49
2023-03-12T15:51:35.081Z,85.65
2023-03-12T15:54:24.196Z,85.59
2023-03-12T15:56:50.658Z,85.75
2023-03-12T15:59:16.988Z,85.95
2023-03-12T16:01:47.509Z,86.33
2023-03-12T16:04:13.948Z,86.51
2023-03-12T16:06:43.833Z,87.13
2023-03-12T16:09:16.876Z,86.90
2023-03-12T16:11:43.795Z,85.84
2023-03-12T16:14:24.539Z,83.52
2023-03-12T16:16:51.477Z,84.13
2023-03-12T16:19:20.771Z,83.64
2023-03-12T16:21:48.385Z,82.89
2023-03-12T16:24:16.442Z,82.75
2023-03-12T16:26:50.579Z,82.19
2023-03-12T16:29:19.180Z,82.35
2023-03-12T16:31:51.520Z,82.53
2023-03-12T16:34:17.954Z,81.58
2023-03-12T16:36:44.360Z,81.13
2023-03-12T16:39:10.726Z,81.29
2023-03-12T16:41:37.665Z,80.80
2023-03-12T16:44:06.860Z,80.48
2023-03-12T16:46:34.957Z,80.98
2023-03-12T16:49:01.785Z,80.57
2023-03-12T16:51:30.832Z,80.74
2023-03-12T16:54:09.708Z,80.26
2023-03-12T16:56:38.559Z,80.69
2023-03-12T16:59:10.958Z,80.65
2023-03-12T17:01:37.670Z,80.39
2023-03-12T17:04:04.890Z,80.77
2023-03-12T17:06:32.694Z,81.04
2023-03-12T17:08:59.697Z,80.93
2023-03-12T17:11:29.928Z,80.93
2023-03-12T17:14:00.100Z,80.69
2023-03-12T17:16:26.976Z,80.72
2023-03-12T17:18:54.094Z,80.90
2023-03-12T17:21:21.299Z,81.18
2023-03-12T17:23:50.250Z,81.22
2023-03-12T17:26:18.624Z,81.60
2023-03-12T17:28:45.362Z,81.86
2023-03-12T17:31:11.742Z,82.18
2023-03-12T17:33:38.444Z,82.43
2023-03-12T17:36:08.067Z,83.01
2023-03-12T17:38:35.077Z,83.16
2023-03-12T17:41:04.700Z,83.96
2023-03-12T17:43:32.339Z,84.13
2023-03-12T17:46:04.326Z,84.37
2023-03-12T17:48:30.725Z,84.79
2023-03-12T17:50:58.172Z,84.88
2023-03-12T17:53:24.909Z,84.88
2023-03-12T17:55:51.275Z,84.91
2023-03-12T17:58:17.646Z,85.44
2023-03-12T18:00:44.172Z,85.69
2023-03-12T18:03:10.629Z,85.95
2023-03-12T18:05:42.821Z,85.88
2023-03-12T18:08:09.865Z,85.75
2023-03-12T18:10:40.449Z,85.74
2023-03-12T18:13:06.877Z,85.90
2023-03-12T18:15:33.343Z,86.22
2023-03-12T18:18:00.919Z,86.02
2023-03-12T18:20:37.783Z,86.05
2023-03-12T18:23:04.867Z,86.15
2023-03-12T18:25:31.234Z,86.10
2023-03-12T18:27:58.130Z,86.50
2023-03-12T18:30:24.627Z,86.38
2023-03-12T18:32:51.067Z,86.45
2023-03-12T18:35:17.616Z,86.30
2023-03-12T18:37:44.818Z,86.43
2023-03-12T18:40:12.417Z,86.19
2023-03-12T18:42:44.027Z,86.53
2023-03-12T18:45:11.801Z,86.13
2023-03-12T18:47:41.955Z,86.25
2023-03-12T18:50:09.532Z,86.33
2023-03-12T18:52:36.396Z,86.68
2023-03-12T18:55:04.303Z,86.68
2023-03-12T18:57:31.303Z,86.96
2023-03-12T18:59:57.895Z,86.85
2023-03-12T19:02:24.304Z,86.87
2023-03-12T19:04:51.217Z,86.76
2023-03-12T19:07:19.541Z,87.12
2023-03-12T19:09:46.602Z,87.49
2023-03-12T19:12:13.040Z,87.26
2023-03-12T19:14:39.551Z,87.54
2023-03-12T19:17:05.953Z,87.36
2023-03-12T19:19:32.391Z,87.78
2023-03-12T19:21:59.068Z,87.31
2023-03-12T19:24:25.968Z,87.56
2023-03-12T19:26:52.442Z,87.30
2023-03-12T19:29:19.191Z,87.47
2023-03-12T19:31:45.703Z,87.15
2023-03-12T19:34:12.239Z,87.61
2023-03-12T19:36:39.023Z,87.81
2023-03-12T19:39:15.316Z,87.90
2023-03-12T19:41:46.739Z,88.09
2023-03-12T19:44:13.135Z,88.19
2023-03-12T19:46:41.686Z,88.31
2023-03-12T19:49:08.127Z,88.50
2023-03-12T19:51:35.342Z,88.38
2023-03-12T19:54:01.937Z,88.52
2023-03-12T19:56:28.973Z,88.50
2023-03-12T19:58:55.378Z,88.85
2023-03-12T20:01:21.746Z,88.94
2023-03-12T20:03:48.186Z,89.20
2023-03-12T20:06:14.837Z,89.11
2023-03-12T20:08:41.228Z,89.42
2023-03-12T20:11:10.071Z,89.50
2023-03-12T20:13:40.052Z,89.59
2023-03-12T20:16:07.609Z,89.64
2023-03-12T20:18:34.499Z,89.58
2023-03-12T20:21:00.917Z,89.76
2023-03-12T20:23:27.300Z,89.86
2023-03-12T20:25:53.706Z,90.28
2023-03-12T20:28:20.082Z,90.33
2023-03-12T20:30:46.969Z,90.61
2023-03-12T20:33:13.668Z,90.51
2023-03-12T20:35:40.085Z,91.01
2023-03-12T20:38:07.040Z,91.04
2023-03-12T20:40:33.753Z,91.38
2023-03-12T20:43:04.540Z,91.81
2023-03-12T20:45:32.598Z,91.94
2023-03-12T20:47:59.104Z,91.87
2023-03-12T20:50:26.983Z,91.89
2023-03-12T20:52:53.477Z,91.84
2023-03-12T20:55:19.942Z,92.08
2023-03-12T20:57:46.349Z,92.36
2023-03-12T21:00:12.950Z,92.34
2023-03-12T21:02:39.438Z,92.34
2023-03-12T21:05:06.000Z,92.63
2023-03-12T21:07:32.452Z,92.30
2023-03-12T21:09:58.830Z,92.46
2023-03-12T21:12:25.256Z,92.32
2023-03-12T21:14:51.679Z,92.33
2023-03-12T21:17:18.030Z,92.40
2023-03-12T21:19:44.625Z,92.12
2023-03-12T21:22:11.018Z,91.92
2023-03-12T21:24:37.494Z,91.88
2023-03-12T21:27:04.105Z,92.03
2023-03-12T21:29:30.478Z,92.10
2023-03-12T21:31:57.348Z,92.08
2023-03-12T21:34:23.935Z,92.05
2023-03-12T21:36:50.313Z,92.04
2023-03-12T21:39:17.496Z,92.19
2023-03-12T21:41:43.847Z,91.86
2023-03-12T21:44:10.245Z,91.92
2023-03-12T21:46:36.786Z,91.96
2023-03-12T21:49:04.062Z,91.88
2023-03-12T21:51:30.639Z,91.79
2023-03-12T21:53:58.352Z,92.00
2023-03-12T21:56:29.175Z,91.62
2023-03-12T21:58:57.138Z,91.72
2023-03-12T22:01:24.108Z,91.77
2023-03-12T22:03:50.978Z,91.58
2023-03-12T22:06:17.375Z,91.71
2023-03-12T22:08:44.075Z,91.69
2023-03-12T22:11:11.009Z,91.52
2023-03-12T22:13:37.801Z,91.00
2023-03-12T22:16:07.894Z,91.18
2023-03-12T22:18:41.284Z,90.78
2023-03-12T22:21:08.824Z,90.59
2023-03-12T22:23:36.298Z,90.44
2023-03-12T22:26:05.134Z,90.60
2023-03-12T22:28:32.306Z,90.54
2023-03-12T22:31:06.971Z,90.18
2023-03-12T22:33:37.815Z,89.87
2023-03-12T22:36:06.977Z,89.85
2023-03-12T22:38:33.443Z,90.25
2023-03-12T22:41:13.287Z,90.16
2023-03-12T22:43:39.718Z,89.88
2023-03-12T22:46:06.219Z,89.78
2023-03-12T22:48:32.811Z,89.40
2023-03-12T22:50:59.199Z,89.29
2023-03-12T22:53:25.601Z,88.90
2023-03-12T22:56:00.163Z,89.31
2023-03-12T22:58:27.090Z,89.20
2023-03-12T23:01:04.056Z,89.09
2023-03-12T23:03:32.043Z,88.80
2023-03-12T23:05:59.565Z,89.05
2023-03-12T23:08:26.843Z,88.81
2023-03-12T23:11:02.399Z,89.03
2023-03-12T23:13:30.805Z,89.22
2023-03-12T23:16:11.178Z,89.28
2023-03-12T23:18:38.222Z,89.30
2023-03-12T23:21:07.978Z,89.36
2023-03-12T23:23:35.704Z,89.20
2023-03-12T23:26:03.229Z,89.27
2023-03-12T23:28:32.406Z,89.33
2023-03-12T23:31:02.010Z,89.50
2023-03-12T23:33:29.957Z,89.47
2023-03-12T23:36:08.905Z,89.33
2023-03-12T23:38:37.610Z,89.69
2023-03-12T23:41:07.597Z,89.87
2023-03-12T23:43:34.487Z,90.05
2023-03-12T23:46:03.780Z,90.14
2023-03-12T23:48:31.932Z,90.28
2023-03-12T23:51:14.536Z,90.29
2023-03-12T23:53:43.438Z,90.96
2023-03-12T23:56:15.776Z,91.21
2023-03-12T23:58:43.373Z,91.83
